Time;durP1;ratioP1;P1;durP2;ratioP2;P2;SDS_P1;SDS_P2;PMS_P1;PMS_P2;Temp;Humidity;BMP_temperature;BMP_pressure;BME280_temperature;BME280_humidity;BME280_pressure;Samples;Min_cycle;Max_cycle;Signal;HPM_P1;HPM_P2
2023/03/15 00:02:04;;;;;;;10.02;1.80;;;;;;;;;;5018729;28;20113;-60
2023/03/15 00:04:33;;;;;;;18.88;2.42;;;;;;;;;;5028851;28;20029;-61
2023/03/15 00:06:59;;;;;;;14.05;2.70;;;;;;;;;;5030622;28;20038;-60
2023/03/15 00:09:24;;;;;;;10.00;2.30;;;;;;;;;;5026966;28;20022;-62
2023/03/15 00:11:53;;;;;;;11.98;2.38;;;;;;;;;;5012108;28;20041;-59
2023/03/15 00:14:19;;;;;;;9.90;2.65;;;;;;;;;;5029304;28;20036;-60
2023/03/15 00:16:45;;;;;;;8.75;2.15;;;;;;;;;;5029565;28;20033;-60
2023/03/15 00:19:11;;;;;;;7.93;2.55;;;;;;;;;;5029177;28;20075;-62
2023/03/15 00:21:36;;;;;;;6.35;2.20;;;;;;;;;;5030472;28;20047;-61
2023/03/15 00:24:02;;;;;;;12.52;2.83;;;;;;;;;;5030663;28;20033;-60
2023/03/15 00:26:27;;;;;;;10.27;2.85;;;;;;;;;;5029882;28;20133;-61
2023/03/15 00:28:53;;;;;;;9.13;2.47;;;;;;;;;;5028852;28;20440;-61
2023/03/15 00:31:20;;;;;;;12.02;2.35;;;;;;;;;;5031408;28;20502;-60
2023/03/15 00:33:47;;;;;;;9.48;2.50;;;;;;;;;;5032227;28;20120;-60
2023/03/15 00:36:13;;;;;;;9.85;3.42;;;;;;;;;;5031335;28;20029;-60
2023/03/15 00:38:40;;;;;;;12.98;3.88;;;;;;;;;;5030234;28;20095;-61
2023/03/15 00:41:14;;;;;;;11.18;3.00;;;;;;;;;;5011896;28;20461;-60
2023/03/15 00:43:41;;;;;;;8.75;3.67;;;;;;;;;;5029029;28;20083;-61
2023/03/15 00:46:07;;;;;;;8.20;3.33;;;;;;;;;;5029775;28;20386;-61
2023/03/15 00:48:34;;;;;;;11.50;3.97;;;;;;;;;;5029526;28;20037;-60
2023/03/15 00:51:08;;;;;;;13.05;4.53;;;;;;;;;;5028441;28;20076;-60
2023/03/15 00:53:35;;;;;;;15.15;4.78;;;;;;;;;;5030014;28;20029;-60
2023/03/15 00:56:26;;;;;;;11.32;4.32;;;;;;;;;;5029455;28;20042;-60
2023/03/15 00:58:51;;;;;;;10.07;4.22;;;;;;;;;;5022540;28;20034;-60
2023/03/15 01:01:28;;;;;;;10.95;3.65;;;;;;;;;;5020220;28;20112;-60
2023/03/15 01:03:55;;;;;;;10.10;3.95;;;;;;;;;;5029393;28;20048;-60
2023/03/15 01:06:24;;;;;;;8.50;3.80;;;;;;;;;;5028945;28;20508;-60
2023/03/15 01:08:50;;;;;;;13.90;4.95;;;;;;;;;;5027922;28;20034;-60
2023/03/15 01:11:23;;;;;;;13.25;5.57;;;;;;;;;;5027931;28;20025;-60
2023/03/15 01:13:50;;;;;;;11.02;4.50;;;;;;;;;;5032969;28;20038;-60
2023/03/15 01:16:15;;;;;;;11.50;5.22;;;;;;;;;;5015636;28;20033;-60
2023/03/15 01:18:41;;;;;;;8.35;3.30;;;;;;;;;;5031158;28;20496;-61
2023/03/15 01:21:08;;;;;;;9.20;3.60;;;;;;;;;;5030124;28;20157;-60
2023/03/15 01:23:33;;;;;;;14.15;5.55;;;;;;;;;;5032724;28;20466;-60
2023/03/15 01:26:00;;;;;;;13.75;5.60;;;;;;;;;;5031311;28;20087;-60
2023/03/15 01:28:26;;;;;;;13.18;5.10;;;;;;;;;;5032205;28;20104;-60
2023/03/15 01:30:51;;;;;;;12.13;5.25;;;;;;;;;;5031822;28;20180;-61
2023/03/15 01:33:17;;;;;;;13.00;5.45;;;;;;;;;;5028433;28;20026;-60
2023/03/15 01:35:43;;;;;;;10.18;4.45;;;;;;;;;;5021449;28;20037;-60
2023/03/15 01:38:09;;;;;;;12.65;6.45;;;;;;;;;;5031488;28;20038;-60
2023/03/15 01:40:39;;;;;;;13.48;5.95;;;;;;;;;;5012295;28;21270;-60
2023/03/15 01:43:17;;;;;;;12.82;6.05;;;;;;;;;;5031215;28;20037;-60
2023/03/15 01:46:01;;;;;;;11.88;5.57;;;;;;;;;;5032194;28;20053;-60
2023/03/15 01:48:48;;;;;;;15.20;5.68;;;;;;;;;;5032245;28;20033;-59
2023/03/15 01:51:22;;;;;;;14.40;6.57;;;;;;;;;;5030756;28;20132;-60
2023/03/15 01:53:52;;;;;;;14.15;6.82;;;;;;;;;;5025321;28;20034;-61
2023/03/15 01:56:18;;;;;;;17.90;7.45;;;;;;;;;;5025920;28;20040;-60
2023/03/15 01:58:45;;;;;;;12.82;6.80;;;;;;;;;;5030403;28;20030;-61
2023/03/15 02:01:13;;;;;;;12.10;5.78;;;;;;;;;;5028796;28;20061;-62
2023/03/15 02:03:45;;;;;;;15.80;7.60;;;;;;;;;;5031249;28;20068;-61
2023/03/15 02:06:16;;;;;;;15.63;7.20;;;;;;;;;;5032988;28;20443;-61
2023/03/15 02:08:48;;;;;;;9.30;4.90;;;;;;;;;;5031212;28;20036;-60
2023/03/15 02:11:15;;;;;;;12.88;6.32;;;;;;;;;;5030255;28;21194;-60
2023/03/15 02:13:41;;;;;;;13.73;5.82;;;;;;;;;;5032665;28;20356;-61
2023/03/15 02:16:07;;;;;;;10.50;6.03;;;;;;;;;;5032884;28;20048;-60
2023/03/15 02:18:35;;;;;;;14.05;6.72;;;;;;;;;;5031280;28;20480;-61
2023/03/15 02:21:06;;;;;;;12.15;5.78;;;;;;;;;;5031748;28;20037;-62
2023/03/15 02:23:32;;;;;;;9.55;5.80;;;;;;;;;;5017768;28;20026;-61
2023/03/15 02:26:12;;;;;;;9.70;5.93;;;;;;;;;;5030630;28;20073;-61
2023/03/15 02:28:38;;;;;;;8.63;4.97;;;;;;;;;;5017447;28;20033;-61
2023/03/15 02:31:04;;;;;;;8.85;5.45;;;;;;;;;;5030828;28;20041;-61
2023/03/15 02:33:40;;;;;;;9.63;4.38;;;;;;;;;;5025808;28;20410;-60
2023/03/15 02:36:26;;;;;;;9.07;5.63;;;;;;;;;;5023095;28;20373;-60
2023/03/15 02:38:54;;;;;;;9.63;5.93;;;;;;;;;;5030713;28;20072;-60
2023/03/15 02:41:27;;;;;;;6.88;3.92;;;;;;;;;;5012085;28;20490;-60
2023/03/15 02:43:57;;;;;;;7.72;4.43;;;;;;;;;;5030549;28;20025;-60
2023/03/15 02:46:23;;;;;;;9.60;4.97;;;;;;;;;;5030604;28;20041;-61
2023/03/15 02:48:52;;;;;;;11.35;6.07;;;;;;;;;;5027463;28;20730;-61
2023/03/15 02:51:28;;;;;;;9.55;5.45;;;;;;;;;;5031150;28;20155;-61
2023/03/15 02:53:54;;;;;;;8.75;4.82;;;;;;;;;;5030194;28;20036;-61
2023/03/15 02:56:20;;;;;;;14.07;5.72;;;;;;;;;;5031823;28;20030;-60
2023/03/15 02:58:45;;;;;;;10.30;5.90;;;;;;;;;;5030061;28;20099;-61
2023/03/15 03:01:15;;;;;;;8.32;4.38;;;;;;;;;;5014031;28;20061;-61
2023/03/15 03:03:41;;;;;;;9.25;4.93;;;;;;;;;;5025597;28;20394;-61
2023/03/15 03:06:09;;;;;;;5.82;3.40;;;;;;;;;;5030156;28;20045;-60
2023/03/15 03:08:35;;;;;;;8.77;5.03;;;;;;;;;;5030496;28;20112;-61
2023/03/15 03:11:00;;;;;;;8.07;4.53;;;;;;;;;;5029067;28;20116;-61
2023/03/15 03:13:26;;;;;;;7.90;4.43;;;;;;;;;;5030501;28;20382;-61
2023/03/15 03:15:57;;;;;;;8.35;5.18;;;;;;;;;;5012275;28;20385;-61
2023/03/15 03:18:27;;;;;;;6.20;3.40;;;;;;;;;;5029890;28;20029;-61
2023/03/15 03:20:57;;;;;;;9.27;5.53;;;;;;;;;;5029514;28;20041;-62
2023/03/15 03:23:26;;;;;;;11.15;5.40;;;;;;;;;;5029261;28;20068;-61
2023/03/15 03:25:53;;;;;;;11.95;5.70;;;;;;;;;;5028961;28;20052;-61
2023/03/15 03:28:20;;;;;;;9.30;5.70;;;;;;;;;;5030253;28;20029;-61
2023/03/15 03:30:45;;;;;;;11.25;5.53;;;;;;;;;;5029074;28;20044;-62
2023/03/15 03:33:11;;;;;;;10.93;5.30;;;;;;;;;;5031320;28;20033;-61
2023/03/15 03:35:36;;;;;;;15.57;6.82;;;;;;;;;;5030047;28;20068;-61
2023/03/15 03:38:02;;;;;;;13.63;6.90;;;;;;;;;;5027750;28;20476;-60
2023/03/15 03:40:27;;;;;;;13.07;6.38;;;;;;;;;;5012569;28;20030;-61
2023/03/15 03:42:52;;;;;;;8.80;4.25;;;;;;;;;;5028474;28;20044;-62
2023/03/15 03:45:18;;;;;;;12.40;5.05;;;;;;;;;;5030210;28;20061;-62
2023/03/15 03:47:44;;;;;;;8.23;4.63;;;;;;;;;;5030097;28;20069;-61
2023/03/15 03:50:10;;;;;;;7.63;4.10;;;;;;;;;;5028137;28;20064;-61
2023/03/15 03:52:35;;;;;;;6.60;3.65;;;;;;;;;;5029986;28;20083;-61
2023/03/15 03:55:02;;;;;;;7.95;4.90;;;;;;;;;;5029789;28;20116;-61
2023/03/15 03:57:27;;;;;;;7.28;4.30;;;;;;;;;;5029892;28;20072;-60
2023/03/15 03:59:53;;;;;;;6.55;3.80;;;;;;;;;;5029696;28;20052;-61
2023/03/15 04:02:18;;;;;;;7.78;4.05;;;;;;;;;;5008885;28;20046;-61
2023/03/15 04:04:44;;;;;;;7.70;4.35;;;;;;;;;;5024917;28;20087;-61
2023/03/15 04:07:09;;;;;;;7.78;4.28;;;;;;;;;;5028521;28;20037;-61
2023/03/15 04:09:36;;;;;;;8.73;3.88;;;;;;;;;;5030855;28;20065;-61
2023/03/15 04:12:02;;;;;;;7.85;4.22;;;;;;;;;;5028476;28;20056;-60
2023/03/15 04:14:27;;;;;;;6.85;3.10;;;;;;;;;;5029884;28;20065;-60
2023/03/15 04:16:53;;;;;;;6.65;3.50;;;;;;;;;;5028267;28;20060;-61
2023/03/15 04:19:19;;;;;;;7.25;3.90;;;;;;;;;;5030579;28;20037;-60
2023/03/15 04:21:47;;;;;;;8.00;4.10;;;;;;;;;;5028550;28;20384;-62
2023/03/15 04:24:13;;;;;;;6.70;4.10;;;;;;;;;;5027312;28;20444;-61
2023/03/15 04:26:40;;;;;;;9.23;4.00;;;;;;;;;;5028227;28;20033;-63
2023/03/15 04:29:06;;;;;;;5.78;3.28;;;;;;;;;;5029706;28;20466;-62
2023/03/15 04:31:36;;;;;;;7.32;3.78;;;;;;;;;;5029030;28;20041;-64
2023/03/15 04:34:02;;;;;;;5.73;3.03;;;;;;;;;;5031033;28;20065;-66
2023/03/15 04:36:28;;;;;;;6.10;3.08;;;;;;;;;;5029210;28;20092;-67
2023/03/15 04:39:04;;;;;;;10.25;4.65;;;;;;;;;;5030570;28;20033;-67
2023/03/15 04:41:30;;;;;;;10.95;4.40;;;;;;;;;;5029399;28;20034;-65
2023/03/15 04:43:55;;;;;;;7.32;3.90;;;;;;;;;;5030242;28;20032;-66
2023/03/15 04:46:20;;;;;;;11.52;4.43;;;;;;;;;;5032519;28;20100;-66
2023/03/15 04:48:46;;;;;;;8.63;4.45;;;;;;;;;;5054371;28;20037;-65
2023/03/15 04:51:11;;;;;;;9.00;4.57;;;;;;;;;;5047206;28;20382;-64
2023/03/15 04:53:38;;;;;;;9.05;4.35;;;;;;;;;;5033202;28;20033;-65
2023/03/15 04:56:04;;;;;;;7.65;4.18;;;;;;;;;;5034473;28;20037;-65
2023/03/15 04:58:30;;;;;;;10.35;4.40;;;;;;;;;;5034892;28;20036;-65
2023/03/15 05:00:55;;;;;;;8.38;3.45;;;;;;;;;;5016224;28;20029;-65
2023/03/15 05:03:21;;;;;;;9.00;3.97;;;;;;;;;;5032807;28;20079;-64
2023/03/15 05:05:46;;;;;;;9.13;4.05;;;;;;;;;;5030173;28;20044;-63
2023/03/15 05:08:12;;;;;;;8.77;4.22;;;;;;;;;;5034923;28;20057;-65
2023/03/15 05:10:37;;;;;;;8.68;4.32;;;;;;;;;;5017315;28;20462;-65
2023/03/15 05:13:02;;;;;;;8.27;4.43;;;;;;;;;;5033977;28;20117;-64
2023/03/15 05:15:28;;;;;;;6.28;3.60;;;;;;;;;;5033438;28;20386;-64
2023/03/15 05:17:56;;;;;;;7.82;4.20;;;;;;;;;;5033990;28;20041;-64
2023/03/15 05:20:22;;;;;;;8.50;3.90;;;;;;;;;;5017108;28;20040;-64
2023/03/15 05:22:48;;;;;;;7.25;3.97;;;;;;;;;;5033575;28;20033;-62
2023/03/15 05:25:14;;;;;;;6.80;3.40;;;;;;;;;;5034323;28;20033;-63
2023/03/15 05:27:39;;;;;;;8.50;4.03;;;;;;;;;;5034707;28;20037;-63
2023/03/15 05:30:06;;;;;;;7.85;4.20;;;;;;;;;;5034000;28;20383;-62
2023/03/15 05:32:38;;;;;;;7.70;3.83;;;;;;;;;;5034503;28;20112;-62
2023/03/15 05:35:06;;;;;;;8.20;4.10;;;;;;;;;;5032079;28;20043;-62
2023/03/15 05:37:32;;;;;;;8.02;4.25;;;;;;;;;;5034648;28;20034;-62
2023/03/15 05:39:58;;;;;;;8.18;4.03;;;;;;;;;;5033521;28;20466;-62
2023/03/15 05:42:28;;;;;;;11.60;4.68;;;;;;;;;;5016856;28;20022;-61
2023/03/15 05:44:55;;;;;;;7.97;4.50;;;;;;;;;;5032193;28;20548;-62
2023/03/15 05:47:21;;;;;;;10.88;4.80;;;;;;;;;;5034699;28;20044;-63
2023/03/15 05:49:47;;;;;;;7.63;4.72;;;;;;;;;;5033597;28;20486;-61
2023/03/15 05:52:13;;;;;;;10.80;5.28;;;;;;;;;;5031833;28;20045;-61
2023/03/15 05:54:38;;;;;;;8.80;5.05;;;;;;;;;;5016768;28;20037;-61
2023/03/15 05:57:04;;;;;;;10.73;6.05;;;;;;;;;;5033019;28;20068;-61
2023/03/15 05:59:30;;;;;;;10.07;6.10;;;;;;;;;;5033946;28;20359;-62
2023/03/15 06:01:55;;;;;;;6.25;3.75;;;;;;;;;;5032241;28;20044;-62
2023/03/15 06:04:21;;;;;;;10.52;4.72;;;;;;;;;;5034131;28;20064;-61
2023/03/15 06:06:47;;;;;;;12.68;6.50;;;;;;;;;;5033515;28;20037;-62
2023/03/15 06:09:12;;;;;;;13.10;6.60;;;;;;;;;;5034263;28;20516;-63
2023/03/15 06:11:37;;;;;;;12.45;6.68;;;;;;;;;;5032097;28;20037;-63
2023/03/15 06:14:03;;;;;;;12.63;6.32;;;;;;;;;;5033012;28;20269;-63
2023/03/15 06:16:29;;;;;;;11.07;5.55;;;;;;;;;;5033906;28;20483;-63
2023/03/15 06:18:54;;;;;;;13.27;6.90;;;;;;;;;;5033118;28;20409;-62
2023/03/15 06:21:20;;;;;;;13.85;7.53;;;;;;;;;;5015050;28;20168;-62
2023/03/15 06:23:45;;;;;;;11.60;6.60;;;;;;;;;;5032608;28;20045;-62
2023/03/15 06:26:10;;;;;;;14.38;7.28;;;;;;;;;;5033393;28;20029;-63
2023/03/15 06:28:36;;;;;;;11.98;6.53;;;;;;;;;;5015719;28;20037;-63
2023/03/15 06:31:12;;;;;;;12.75;6.70;;;;;;;;;;5031691;28;20033;-62
2023/03/15 06:33:37;;;;;;;14.02;7.63;;;;;;;;;;5030338;28;20037;-64
2023/03/15 06:36:04;;;;;;;12.80;7.25;;;;;;;;;;5032937;28;20029;-62
2023/03/15 06:38:30;;;;;;;14.88;7.25;;;;;;;;;;5033364;28;20561;-62
2023/03/15 06:40:57;;;;;;;14.55;7.15;;;;;;;;;;5032614;28;20030;-63
2023/03/15 06:43:24;;;;;;;12.35;6.47;;;;;;;;;;5031464;28;20034;-62
2023/03/15 06:45:49;;;;;;;14.07;6.63;;;;;;;;;;5032063;28;20374;-62
2023/03/15 06:48:15;;;;;;;12.65;6.30;;;;;;;;;;5033393;28;20037;-63
2023/03/15 06:50:40;;;;;;;13.48;6.90;;;;;;;;;;5031297;28;20450;-61
2023/03/15 06:53:06;;;;;;;13.73;6.95;;;;;;;;;;5032031;28;20658;-62
2023/03/15 06:55:31;;;;;;;11.90;6.45;;;;;;;;;;5032894;28;20029;-61
2023/03/15 06:57:57;;;;;;;11.88;6.32;;;;;;;;;;5032115;28;20113;-63
2023/03/15 07:00:22;;;;;;;9.38;4.60;;;;;;;;;;5015310;28;20033;-65
2023/03/15 07:02:48;;;;;;;11.15;5.20;;;;;;;;;;5031417;28;20061;-62
2023/03/15 07:05:13;;;;;;;10.40;4.80;;;;;;;;;;5032114;28;20027;-70
2023/03/15 07:07:39;;;;;;;10.02;5.45;;;;;;;;;;5032812;28;20172;-63
2023/03/15 07:10:05;;;;;;;13.00;6.00;;;;;;;;;;5030796;28;20034;-63
2023/03/15 07:12:30;;;;;;;10.35;5.85;;;;;;;;;;5013443;28;20082;-63
2023/03/15 07:14:56;;;;;;;11.80;6.30;;;;;;;;;;5031910;28;20505;-61
2023/03/15 07:17:21;;;;;;;12.63;5.82;;;;;;;;;;5032341;28;20040;-61
2023/03/15 07:19:47;;;;;;;10.75;5.57;;;;;;;;;;5031123;28;20478;-61
2023/03/15 07:22:12;;;;;;;15.05;5.78;;;;;;;;;;5031195;28;20116;-61
2023/03/15 07:24:38;;;;;;;13.82;5.50;;;;;;;;;;5032298;28;20029;-61
2023/03/15 07:27:04;;;;;;;11.68;5.28;;;;;;;;;;5030837;28;20036;-61
2023/03/15 07:29:29;;;;;;;12.55;5.75;;;;;;;;;;5032544;28;20036;-61
2023/03/15 07:31:55;;;;;;;14.20;6.50;;;;;;;;;;5031691;28;20033;-61
2023/03/15 07:34:20;;;;;;;18.70;7.22;;;;;;;;;;5014590;28;20033;-61
2023/03/15 07:36:46;;;;;;;14.82;6.95;;;;;;;;;;5030445;28;20032;-61
2023/03/15 07:39:11;;;;;;;12.68;6.30;;;;;;;;;;5013698;28;20034;-62
2023/03/15 07:41:37;;;;;;;15.13;5.88;;;;;;;;;;5032649;28;20037;-61
2023/03/15 07:44:03;;;;;;;10.18;5.28;;;;;;;;;;5031801;28;20112;-61
2023/03/15 07:46:28;;;;;;;17.35;7.20;;;;;;;;;;5013024;28;20045;-61
2023/03/15 07:48:54;;;;;;;18.17;7.78;;;;;;;;;;5030873;28;20425;-61
2023/03/15 07:51:19;;;;;;;17.70;7.80;;;;;;;;;;5032498;28;20034;-61
2023/03/15 07:53:44;;;;;;;16.88;8.77;;;;;;;;;;5032006;28;20026;-61
2023/03/15 07:56:10;;;;;;;16.60;8.60;;;;;;;;;;5028791;28;20710;-63
2023/03/15 07:58:35;;;;;;;17.98;7.93;;;;;;;;;;5014102;28;20029;-61
2023/03/15 08:01:00;;;;;;;21.73;8.95;;;;;;;;;;5031092;28;20510;-61
2023/03/15 08:03:26;;;;;;;15.43;7.60;;;;;;;;;;5031950;28;20029;-61
2023/03/15 08:05:52;;;;;;;25.15;8.82;;;;;;;;;;5031026;28;20037;-61
2023/03/15 08:08:18;;;;;;;17.30;8.82;;;;;;;;;;5030079;28;20025;-61
2023/03/15 08:10:43;;;;;;;19.38;8.98;;;;;;;;;;5031685;28;20021;-61
2023/03/15 08:13:09;;;;;;;19.15;8.68;;;;;;;;;;5030885;28;20065;-62
2023/03/15 08:15:35;;;;;;;11.25;6.47;;;;;;;;;;5031703;28;20029;-61
2023/03/15 08:18:00;;;;;;;9.48;4.30;;;;;;;;;;5029143;28;20037;-61
2023/03/15 08:20:26;;;;;;;10.93;4.05;;;;;;;;;;5030912;28;20116;-61
2023/03/15 08:22:51;;;;;;;11.55;5.28;;;;;;;;;;5035635;28;20029;-61
2023/03/15 08:25:20;;;;;;;12.05;5.47;;;;;;;;;;5034888;28;20466;-61
2023/03/15 08:27:46;;;;;;;13.60;6.38;;;;;;;;;;5035044;28;20437;-61
2023/03/15 08:30:13;;;;;;;11.48;6.40;;;;;;;;;;5034967;28;20037;-62
2023/03/15 08:32:43;;;;;;;10.95;6.20;;;;;;;;;;5035785;28;20038;-62
2023/03/15 08:35:11;;;;;;;10.45;5.47;;;;;;;;;;5017297;28;20037;-63
2023/03/15 08:37:37;;;;;;;15.55;7.32;;;;;;;;;;5033791;28;20045;-62
2023/03/15 08:40:10;;;;;;;14.70;7.78;;;;;;;;;;5034493;28;20033;-62
2023/03/15 08:42:36;;;;;;;14.07;7.10;;;;;;;;;;5018986;28;20084;-63
2023/03/15 08:45:05;;;;;;;11.88;6.28;;;;;;;;;;5034426;28;20149;-62
2023/03/15 08:47:34;;;;;;;10.68;5.68;;;;;;;;;;5033936;28;20109;-62
2023/03/15 08:50:00;;;;;;;10.40;4.82;;;;;;;;;;5034561;28;20034;-63
2023/03/15 08:52:26;;;;;;;12.57;5.25;;;;;;;;;;5035528;28;20040;-63
2023/03/15 08:54:51;;;;;;;11.57;5.25;;;;;;;;;;5036014;28;20037;-62
2023/03/15 08:57:17;;;;;;;12.75;5.00;;;;;;;;;;5034138;28;20090;-62
2023/03/15 08:59:42;;;;;;;8.75;4.30;;;;;;;;;;5035305;28;20025;-63
2023/03/15 09:02:10;;;;;;;8.80;4.60;;;;;;;;;;5016670;28;20483;-63
2023/03/15 09:04:36;;;;;;;9.30;4.93;;;;;;;;;;5035009;28;20021;-63
2023/03/15 09:07:01;;;;;;;8.23;4.18;;;;;;;;;;5032408;28;20033;-62
2023/03/15 09:09:26;;;;;;;8.15;3.95;;;;;;;;;;5034523;28;20462;-63
2023/03/15 09:11:52;;;;;;;7.72;3.67;;;;;;;;;;5035247;28;20515;-62
2023/03/15 09:14:17;;;;;;;7.03;3.28;;;;;;;;;;5034051;28;20033;-61
2023/03/15 09:16:43;;;;;;;11.57;5.03;;;;;;;;;;5033299;28;20021;-61
2023/03/15 09:19:08;;;;;;;10.50;4.72;;;;;;;;;;5031571;28;20033;-62
2023/03/15 09:21:33;;;;;;;12.38;5.40;;;;;;;;;;5032094;28;20040;-61
2023/03/15 09:23:59;;;;;;;12.20;4.43;;;;;;;;;;5034382;28;20036;-62
2023/03/15 09:26:24;;;;;;;9.80;4.50;;;;;;;;;;5033915;28;20462;-62
2023/03/15 09:28:50;;;;;;;7.97;3.83;;;;;;;;;;5034683;28;20057;-63
2023/03/15 09:31:15;;;;;;;7.97;4.38;;;;;;;;;;5034155;28;20605;-61
2023/03/15 09:33:41;;;;;;;12.80;4.70;;;;;;;;;;5033712;28;20079;-62
2023/03/15 09:36:06;;;;;;;9.65;4.35;;;;;;;;;;5031895;28;20095;-61
2023/03/15 09:38:32;;;;;;;9.77;4.03;;;;;;;;;;5033714;28;20112;-61
2023/03/15 09:40:58;;;;;;;10.95;4.25;;;;;;;;;;5034155;28;20029;-61
2023/03/15 09:43:51;;;;;;;8.20;4.45;;;;;;;;;;5034051;28;20068;-62
2023/03/15 09:46:26;;;;;;;10.32;4.10;;;;;;;;;;5031344;28;20604;-62
2023/03/15 09:48:57;;;;;;;11.25;4.20;;;;;;;;;;5034576;28;20398;-62
2023/03/15 09:51:22;;;;;;;;;;;;;;;;;;5034133;28;20033;-60
2023/03/15 09:53:53;;;;;;;9.48;3.13;;;;;;;;;;5034184;28;19920;-62
2023/03/15 09:56:21;;;;;;;7.15;3.08;;;;;;;;;;5030920;28;20328;-61
2023/03/15 09:58:49;;;;;;;9.25;3.03;;;;;;;;;;5034272;28;20045;-62
2023/03/15 10:01:16;;;;;;;8.77;2.90;;;;;;;;;;5032924;28;20026;-63
2023/03/15 10:03:50;;;;;;;8.75;3.15;;;;;;;;;;5033996;28;20437;-62
2023/03/15 10:06:27;;;;;;;11.00;3.65;;;;;;;;;;5031838;28;20087;-60
2023/03/15 10:08:58;;;;;;;6.47;3.70;;;;;;;;;;5033920;28;20543;-61
2023/03/15 10:11:44;;;;;;;8.68;3.58;;;;;;;;;;5033310;28;20037;-62
2023/03/15 10:14:20;;;;;;;14.18;3.47;;;;;;;;;;5015369;28;20083;-61
2023/03/15 10:16:47;;;;;;;8.50;2.88;;;;;;;;;;5032476;28;20033;-61
2023/03/15 10:19:48;;;;;;;11.18;3.08;;;;;;;;;;5032919;28;20052;-62
2023/03/15 10:22:26;;;;;;;6.78;2.90;;;;;;;;;;4978204;28;20045;-63
2023/03/15 10:25:14;;;;;;;9.02;2.80;;;;;;;;;;5033529;28;20103;-62
2023/03/15 10:27:44;;;;;;;14.25;3.22;;;;;;;;;;5031930;28;20433;-63
2023/03/15 10:30:25;;;;;;;6.78;2.28;;;;;;;;;;5032776;28;20037;-62
2023/03/15 10:33:02;;;;;;;7.32;2.58;;;;;;;;;;5033713;28;20400;-61
2023/03/15 10:35:28;;;;;;;8.65;2.33;;;;;;;;;;5032178;28;20083;-61
2023/03/15 10:37:54;;;;;;;8.88;2.58;;;;;;;;;;5013701;28;20037;-61
2023/03/15 10:40:41;;;;;;;7.22;2.38;;;;;;;;;;5012681;28;20273;-61
2023/03/15 10:43:38;;;;;;;8.60;2.17;;;;;;;;;;5012767;28;20026;-61
2023/03/15 10:46:11;;;;;;;7.65;2.17;;;;;;;;;;5019090;28;20132;-62
2023/03/15 10:48:39;;;;;;;4.72;1.90;;;;;;;;;;5033321;28;20082;-61
2023/03/15 10:51:31;;;;;;;6.00;1.90;;;;;;;;;;5032123;28;20025;-62
2023/03/15 10:54:04;;;;;;;12.07;2.13;;;;;;;;;;5033118;28;20026;-63
2023/03/15 10:56:35;;;;;;;6.43;1.60;;;;;;;;;;5030767;28;20134;-63
2023/03/15 10:59:00;;;;;;;4.63;1.30;;;;;;;;;;5032809;28;20034;-62
2023/03/15 11:01:36;;;;;;;8.20;1.80;;;;;;;;;;5032554;28;20493;-62
2023/03/15 11:04:07;;;;;;;2.70;1.27;;;;;;;;;;5032963;28;20527;-62
2023/03/15 11:06:47;;;;;;;4.15;1.48;;;;;;;;;;5030494;28;20033;-62
2023/03/15 11:09:16;;;;;;;4.53;1.50;;;;;;;;;;5032308;28;20040;-63
2023/03/15 11:11:58;;;;;;;7.43;1.50;;;;;;;;;;5031475;28;20064;-63
2023/03/15 11:14:26;;;;;;;6.88;1.60;;;;;;;;;;5031207;28;20331;-62
2023/03/15 11:16:55;;;;;;;4.68;1.15;;;;;;;;;;5029203;28;20038;-62
2023/03/15 11:19:25;;;;;;;5.78;1.92;;;;;;;;;;5031825;28;20048;-62
2023/03/15 11:21:51;;;;;;;6.32;1.80;;;;;;;;;;5032632;28;20081;-62
2023/03/15 11:24:25;;;;;;;7.40;1.75;;;;;;;;;;5031842;28;20065;-62
2023/03/15 11:26:53;;;;;;;4.47;1.60;;;;;;;;;;5013061;28;20033;-62
2023/03/15 11:29:31;;;;;;;5.35;1.70;;;;;;;;;;5031719;28;20029;-62
2023/03/15 11:31:59;;;;;;;5.60;1.60;;;;;;;;;;5032430;28;20052;-61
2023/03/15 11:34:59;;;;;;;6.20;1.90;;;;;;;;;;5031603;28;20029;-61
2023/03/15 11:37:37;;;;;;;7.50;1.60;;;;;;;;;;5012723;28;20088;-62
2023/03/15 11:40:17;;;;;;;4.78;1.60;;;;;;;;;;5032341;28;20377;-62
2023/03/15 11:43:03;;;;;;;6.23;1.30;;;;;;;;;;5029957;28;20025;-62
2023/03/15 11:45:41;;;;;;;4.32;1.60;;;;;;;;;;5031099;28;20298;-63
2023/03/15 11:48:18;;;;;;;5.68;1.55;;;;;;;;;;5031897;28;20035;-62
2023/03/15 11:50:43;;;;;;;4.53;1.50;;;;;;;;;;5032189;28;20033;-62
2023/03/15 11:53:16;;;;;;;5.38;1.65;;;;;;;;;;5030544;28;20095;-62
2023/03/15 11:55:48;;;;;;;7.10;1.58;;;;;;;;;;5031072;28;20037;-62
2023/03/15 11:59:00;;;;;;;6.07;1.75;;;;;;;;;;5031360;28;20033;-62
2023/03/15 12:01:26;;;;;;;5.07;1.80;;;;;;;;;;4985225;28;20112;-62
2023/03/15 12:04:20;;;;;;;4.80;1.80;;;;;;;;;;5032000;28;20223;-62
2023/03/15 12:06:46;;;;;;;5.45;1.83;;;;;;;;;;5031721;28;20088;-62
2023/03/15 12:09:31;;;;;;;6.82;1.80;;;;;;;;;;5031237;28;20036;-62
2023/03/15 12:12:15;;;;;;;5.85;1.77;;;;;;;;;;5030220;28;20390;-61
2023/03/15 12:14:40;;;;;;;2.95;1.50;;;;;;;;;;5031720;28;20048;-63
2023/03/15 12:17:25;;;;;;;4.40;1.73;;;;;;;;;;5031474;28;20033;-63
2023/03/15 12:20:11;;;;;;;5.22;1.45;;;;;;;;;;5030652;28;20417;-61
2023/03/15 12:22:42;;;;;;;5.22;1.55;;;;;;;;;;5031730;28;20025;-62
2023/03/15 12:25:35;;;;;;;4.10;1.50;;;;;;;;;;5031001;28;20382;-62
2023/03/15 12:28:07;;;;;;;4.53;1.50;;;;;;;;;;5031693;28;20042;-63
2023/03/15 12:30:43;;;;;;;3.85;1.60;;;;;;;;;;5030390;28;20034;-61
2023/03/15 12:33:16;;;;;;;5.18;1.38;;;;;;;;;;5031321;28;20132;-62
2023/03/15 12:35:42;;;;;;;3.38;1.40;;;;;;;;;;5032034;28;20037;-61
2023/03/15 12:38:22;;;;;;;3.05;1.17;;;;;;;;;;5030954;28;20112;-60
2023/03/15 12:40:55;;;;;;;4.15;1.27;;;;;;;;;;5029993;28;20037;-63
2023/03/15 12:43:41;;;;;;;4.22;1.55;;;;;;;;;;5030883;28;20061;-63
2023/03/15 12:46:40;;;;;;;3.75;1.70;;;;;;;;;;5031005;28;20056;-62
2023/03/15 12:49:26;;;;;;;3.15;1.60;;;;;;;;;;5030596;28;20754;-61
2023/03/15 12:52:14;;;;;;;4.90;2.03;;;;;;;;;;5031468;28;20481;-61
2023/03/15 12:54:43;;;;;;;2.30;1.30;;;;;;;;;;5031425;28;20060;-61
2023/03/15 12:57:12;;;;;;;3.90;1.50;;;;;;;;;;5031035;28;20025;-61
2023/03/15 12:59:47;;;;;;;3.55;1.23;;;;;;;;;;5030130;28;20029;-61
2023/03/15 13:02:34;;;;;;;3.38;1.40;;;;;;;;;;5030586;28;20450;-61
2023/03/15 13:05:12;;;;;;;3.67;1.50;;;;;;;;;;5030882;28;20029;-61
2023/03/15 13:07:53;;;;;;;3.20;1.15;;;;;;;;;;5032986;28;20505;-61
2023/03/15 13:10:24;;;;;;;4.05;1.45;;;;;;;;;;5032874;28;20029;-61
2023/03/15 13:13:14;;;;;;;4.13;1.63;;;;;;;;;;5035232;28;20034;-62
2023/03/15 13:15:57;;;;;;;4.90;1.30;;;;;;;;;;5034782;28;20036;-62
2023/03/15 13:18:23;;;;;;;4.10;1.20;;;;;;;;;;5033952;28;20065;-61
2023/03/15 13:21:16;;;;;;;5.65;1.60;;;;;;;;;;5032994;28;20064;-62
2023/03/15 13:23:43;;;;;;;3.22;1.30;;;;;;;;;;5034623;28;20025;-61
2023/03/15 13:26:33;;;;;;;3.72;1.52;;;;;;;;;;5034620;28;20112;-62
2023/03/15 13:29:06;;;;;;;2.95;1.30;;;;;;;;;;5033558;28;20088;-61
2023/03/15 13:31:32;;;;;;;3.10;1.30;;;;;;;;;;5033673;28;20041;-62
2023/03/15 13:34:11;;;;;;;3.10;1.30;;;;;;;;;;5034593;28;20029;-62
2023/03/15 13:36:44;;;;;;;3.20;1.38;;;;;;;;;;5034375;28;20470;-62
2023/03/15 13:39:18;;;;;;;2.42;1.10;;;;;;;;;;5014243;28;20386;-62
2023/03/15 13:41:43;;;;;;;5.32;1.50;;;;;;;;;;5034455;28;20029;-62
2023/03/15 13:44:19;;;;;;;3.28;1.30;;;;;;;;;;5033991;28;20367;-61
2023/03/15 13:46:47;;;;;;;3.75;1.30;;;;;;;;;;5033695;28;20437;-61
2023/03/15 13:49:12;;;;;;;2.08;1.30;;;;;;;;;;5032985;28;20112;-62
2023/03/15 13:51:38;;;;;;;2.88;1.33;;;;;;;;;;5034028;28;20113;-61
2023/03/15 13:54:16;;;;;;;3.50;1.20;;;;;;;;;;5034334;28;20037;-61
2023/03/15 13:57:03;;;;;;;4.28;1.48;;;;;;;;;;5034064;28;20037;-61
2023/03/15 13:59:58;;;;;;;3.10;1.55;;;;;;;;;;5031559;28;20037;-61
2023/03/15 14:02:38;;;;;;;3.42;1.40;;;;;;;;;;5031010;28;20037;-61
2023/03/15 14:05:08;;;;;;;4.32;1.40;;;;;;;;;;5034003;28;20084;-61
2023/03/15 14:07:42;;;;;;;2.95;1.20;;;;;;;;;;5032939;28;20663;-61
2023/03/15 14:10:17;;;;;;;3.08;1.30;;;;;;;;;;5031184;28;20107;-61
2023/03/15 14:12:43;;;;;;;3.65;1.55;;;;;;;;;;5033577;28;20104;-61
2023/03/15 14:15:35;;;;;;;5.72;1.50;;;;;;;;;;5033625;28;20520;-61
2023/03/15 14:18:02;;;;;;;;;;;;;;;;;;5034256;28;20030;-61
2023/03/15 14:20:32;;;;;;;5.85;1.38;;;;;;;;;;5030901;28;19913;-61
2023/03/15 14:23:03;;;;;;;3.95;1.65;;;;;;;;;;5033486;28;20064;-61
2023/03/15 14:25:32;;;;;;;;;;;;;;;;;;5033244;28;20076;-61
2023/03/15 14:28:00;;;;;;;4.80;1.20;;;;;;;;;;5033588;28;19968;-61
2023/03/15 14:30:27;;;;;;;4.50;1.90;;;;;;;;;;5014463;28;20040;-61
2023/03/15 14:32:56;;;;;;;4.22;1.60;;;;;;;;;;5033554;28;20523;-61
2023/03/15 14:35:36;;;;;;;3.55;1.40;;;;;;;;;;5032729;28;20140;-61
2023/03/15 14:38:15;;;;;;;3.38;1.50;;;;;;;;;;5033200;28;20474;-61
2023/03/15 14:40:41;;;;;;;3.10;1.10;;;;;;;;;;5031444;28;20405;-61
2023/03/15 14:43:08;;;;;;;2.63;1.30;;;;;;;;;;5033050;28;20025;-61
2023/03/15 14:45:35;;;;;;;2.30;1.23;;;;;;;;;;5032097;28;20889;-61
2023/03/15 14:48:28;;;;;;;3.03;1.40;;;;;;;;;;5032752;28;20057;-61
2023/03/15 14:50:55;;;;;;;3.80;1.48;;;;;;;;;;5028834;28;20509;-61
2023/03/15 14:53:23;;;;;;;4.90;1.60;;;;;;;;;;5032333;28;20033;-61
2023/03/15 14:55:48;;;;;;;4.43;1.30;;;;;;;;;;5033299;28;20040;-61